Time,TemperatureF,DewpointF,PressureIn,WindDirection,WindDirectionDegrees,WindSpeedMPH,WindSpeedGustMPH,Humidity,HourlyPrecipIn,Conditions,Clouds,dailyrainin,SoftwareType,DateUTC
2013-11-20 00:02:00,34.0,23.0,30.34,North,352,0.0,0.0,64,0.00,,,0.00,,2013-11-20 05:02:00,
2013-11-20 00:12:00,34.0,23.0,30.34,North,352,0.0,0.0,64,0.00,,,0.00,,2013-11-20 05:12:00,
2013-11-20 00:22:00,33.0,22.0,30.34,North,352,0.0,0.0,64,0.00,,,0.00,,2013-11-20 05:22:00,
2013-11-20 00:43:00,33.0,22.0,30.34,North,352,0.0,0.0,64,0.00,,,0.00,,2013-11-20 05:43:00,
2013-11-20 00:53:00,33.0,23.0,30.35,North,352,0.0,0.0,65,0.00,,,0.00,,2013-11-20 05:53:00,
2013-11-20 01:12:00,33.0,22.0,30.35,North,352,0.0,0.0,64,0.00,,,0.00,,2013-11-20 06:12:00,
2013-11-20 01:22:00,33.0,23.0,30.35,North,352,0.0,0.0,65,0.00,,,0.00,,2013-11-20 06:22:00,
2013-11-20 01:42:00,33.0,23.0,30.36,North,352,0.0,0.0,65,0.00,,,0.00,,2013-11-20 06:42:00,
2013-11-20 01:52:00,33.0,23.0,30.36,North,352,0.0,0.0,65,0.00,,,0.00,,2013-11-20 06:52:00,
2013-11-20 02:11:00,33.0,22.0,30.36,North,352,0.0,0.0,64,0.00,,,0.00,,2013-11-20 07:11:00,
2013-11-20 02:22:00,33.0,22.0,30.36,North,352,0.0,0.0,64,0.00,,,0.00,,2013-11-20 07:22:00,
2013-11-20 02:42:00,33.0,22.0,30.37,North,352,0.0,0.0,64,0.00,,,0.00,,2013-11-20 07:42:00,
2013-11-20 02:52:00,32.0,21.0,30.38,North,352,0.0,0.0,64,0.00,,,0.00,,2013-11-20 07:52:00,
2013-11-20 03:22:00,32.0,22.0,30.39,North,352,0.0,0.0,65,0.00,,,0.00,,2013-11-20 08:22:00,
2013-11-20 03:42:00,32.0,22.0,30.39,North,352,0.0,0.0,65,0.00,,,0.00,,2013-11-20 08:42:00,
2013-11-20 03:52:00,32.0,22.0,30.40,North,352,0.0,0.0,65,0.00,,,0.00,,2013-11-20 08:52:00,
2013-11-20 04:13:00,32.0,22.0,30.41,North,352,0.0,0.0,66,0.00,,,0.00,,2013-11-20 09:13:00,
2013-11-20 04:22:00,32.0,22.0,30.42,North,352,0.0,0.0,66,0.00,,,0.00,,2013-11-20 09:22:00,
2013-11-20 04:43:00,31.0,21.0,30.42,North,352,0.0,0.0,67,0.00,,,0.00,,2013-11-20 09:43:00,
2013-11-20 04:54:00,31.0,21.0,30.43,North,352,0.0,0.0,67,0.00,,,0.00,,2013-11-20 09:54:00,
2013-11-20 05:13:00,31.0,22.0,30.44,North,352,0.0,0.0,68,0.00,,,0.00,,2013-11-20 10:13:00,
2013-11-20 05:23:00,31.0,21.0,30.44,North,352,0.0,0.0,67,0.00,,,0.00,,2013-11-20 10:23:00,
2013-11-20 05:43:00,31.0,21.0,30.45,North,352,0.0,0.0,67,0.00,,,0.00,,2013-11-20 10:43:00,
2013-11-20 05:53:00,31.0,22.0,30.45,North,352,0.0,0.0,68,0.00,,,0.00,,2013-11-20 10:53:00,
2013-11-20 06:12:00,31.0,22.0,30.47,North,352,0.0,0.0,68,0.00,,,0.00,,2013-11-20 11:12:00,
2013-11-20 06:22:00,30.0,22.0,30.47,North,352,0.0,0.0,73,0.00,,,0.00,,2013-11-20 11:22:00,
2013-11-20 06:43:00,30.0,22.0,30.47,North,352,0.0,0.0,72,0.00,,,0.00,,2013-11-20 11:43:00,
2013-11-20 06:52:00,30.0,22.0,30.48,North,352,0.0,0.0,72,0.00,,,0.00,,2013-11-20 11:52:00,
2013-11-20 07:11:00,29.0,21.0,30.49,North,352,0.0,0.0,73,0.00,,,0.00,,2013-11-20 12:11:00,
2013-11-20 07:22:00,29.0,21.0,30.50,North,352,0.0,0.0,73,0.00,,,0.00,,2013-11-20 12:22:00,
2013-11-20 07:42:00,29.0,22.0,30.50,North,352,0.0,0.0,74,0.00,,,0.00,,2013-11-20 12:42:00,
2013-11-20 07:52:00,29.0,22.0,30.51,North,352,0.0,0.0,74,0.00,,,0.00,,2013-11-20 12:52:00,
2013-11-20 08:11:00,29.0,22.0,30.52,North,352,0.0,0.0,74,0.00,,,0.00,,2013-11-20 13:11:00,
2013-11-20 08:22:00,30.0,22.0,30.52,North,352,0.0,0.0,71,0.00,,,0.00,,2013-11-20 13:22:00,
2013-11-20 08:42:00,30.0,21.0,30.53,North,352,0.0,0.0,69,0.00,,,0.00,,2013-11-20 13:42:00,
2013-11-20 08:52:00,31.0,20.0,30.53,North,352,0.0,0.0,64,0.00,,,0.00,,2013-11-20 13:52:00,
2013-11-20 09:12:00,31.0,20.0,30.54,North,352,0.0,0.0,64,0.00,,,0.00,,2013-11-20 14:12:00,
2013-11-20 09:22:00,32.0,20.0,30.54,North,352,0.0,0.0,61,0.00,,,0.00,,2013-11-20 14:22:00,
2013-11-20 09:42:00,32.0,20.0,30.54,North,352,0.0,0.0,60,0.00,,,0.00,,2013-11-20 14:42:00,
2013-11-20 09:52:00,33.0,20.0,30.54,North,352,0.0,0.0,58,0.00,,,0.00,,2013-11-20 14:52:00,
2013-11-20 10:11:00,33.0,19.0,30.55,North,352,0.0,0.0,57,0.00,,,0.00,,2013-11-20 15:11:00,
2013-11-20 10:22:00,35.0,19.0,30.55,North,352,0.0,0.0,52,0.00,,,0.00,,2013-11-20 15:22:00,
2013-11-20 10:43:00,37.0,19.0,30.55,North,352,0.0,0.0,48,0.00,,,0.00,,2013-11-20 15:43:00,
2013-11-20 10:54:00,38.0,19.0,30.56,North,352,0.0,0.0,45,0.00,,,0.00,,2013-11-20 15:54:00,
2013-11-20 11:12:00,39.0,19.0,30.56,North,352,0.0,0.0,45,0.00,,,0.00,,2013-11-20 16:12:00,
2013-11-20 11:23:00,39.0,18.0,30.56,North,352,0.0,0.0,43,0.00,,,0.00,,2013-11-20 16:23:00,
2013-11-20 11:43:00,39.0,19.0,30.56,North,352,0.0,0.0,44,0.00,,,0.00,,2013-11-20 16:43:00,
2013-11-20 11:52:00,40.0,18.0,30.55,North,352,0.0,0.0,41,0.00,,,0.00,,2013-11-20 16:52:00,
2013-11-20 12:12:00,41.0,20.0,30.54,North,352,0.0,0.0,42,0.00,,,0.00,,2013-11-20 17:12:00,
2013-11-20 12:22:00,42.0,19.0,30.54,North,352,0.0,0.0,39,0.00,,,0.00,,2013-11-20 17:22:00,
2013-11-20 12:42:00,42.0,18.0,30.54,North,352,0.0,0.0,38,0.00,,,0.00,,2013-11-20 17:42:00,
2013-11-20 12:52:00,43.0,17.0,30.54,North,352,0.0,0.0,34,0.00,,,0.00,,2013-11-20 17:52:00,
2013-11-20 13:12:00,44.0,17.0,30.54,North,352,0.0,0.0,34,0.00,,,0.00,,2013-11-20 18:12:00,
2013-11-20 13:22:00,44.0,18.0,30.54,North,352,0.0,0.0,35,0.00,,,0.00,,2013-11-20 18:22:00,
2013-11-20 13:43:00,45.0,18.0,30.54,North,352,0.0,0.0,33,0.00,,,0.00,,2013-11-20 18:43:00,
2013-11-20 13:52:00,44.0,17.0,30.54,North,352,0.0,0.0,34,0.00,,,0.00,,2013-11-20 18:52:00,
2013-11-20 14:22:00,45.0,16.0,30.53,North,352,0.0,0.0,31,0.00,,,0.00,,2013-11-20 19:22:00,
2013-11-20 14:42:00,45.0,15.0,30.54,North,352,0.0,0.0,30,0.00,,,0.00,,2013-11-20 19:42:00,
2013-11-20 14:52:00,46.0,16.0,30.54,North,352,0.0,0.0,30,0.00,,,0.00,,2013-11-20 19:52:00,
2013-11-20 15:11:00,46.0,16.0,30.54,North,352,0.0,0.0,30,0.00,,,0.00,,2013-11-20 20:11:00,
2013-11-20 15:22:00,46.0,17.0,30.54,North,352,0.0,0.0,31,0.00,,,0.00,,2013-11-20 20:22:00,
2013-11-20 15:42:00,46.0,17.0,30.54,North,352,0.0,0.0,31,0.00,,,0.00,,2013-11-20 20:42:00,
2013-11-20 15:52:00,46.0,16.0,30.54,North,352,0.0,0.0,30,0.00,,,0.00,,2013-11-20 20:52:00,
2013-11-20 16:22:00,43.0,16.0,30.54,North,352,0.0,0.0,33,0.00,,,0.00,,2013-11-20 21:22:00,
2013-11-20 16:43:00,42.0,16.0,30.54,North,352,0.0,0.0,34,0.00,,,0.00,,2013-11-20 21:43:00,
2013-11-20 16:53:00,41.0,17.0,30.54,North,352,0.0,0.0,37,0.00,,,0.00,,2013-11-20 21:53:00,
2013-11-20 17:13:00,40.0,16.0,30.54,North,352,0.0,0.0,38,0.00,,,0.00,,2013-11-20 22:13:00,
2013-11-20 17:23:00,38.0,17.0,30.55,North,352,0.0,0.0,42,0.00,,,0.00,,2013-11-20 22:23:00,
2013-11-20 17:42:00,37.0,17.0,30.55,North,352,0.0,0.0,44,0.00,,,0.00,,2013-11-20 22:42:00,
2013-11-20 17:53:00,36.0,19.0,30.55,North,352,0.0,0.0,49,0.00,,,0.00,,2013-11-20 22:53:00,
2013-11-20 18:12:00,34.0,19.0,30.56,North,352,0.0,0.0,53,0.00,,,0.00,,2013-11-20 23:12:00,
2013-11-20 18:22:00,33.0,19.0,30.56,North,352,0.0,0.0,55,0.00,,,0.00,,2013-11-20 23:22:00,
2013-11-20 18:43:00,32.0,19.0,30.56,North,352,0.0,0.0,58,0.00,,,0.00,,2013-11-20 23:43:00,
2013-11-20 18:52:00,32.0,19.0,30.56,North,352,0.0,0.0,59,0.00,,,0.00,,2013-11-20 23:52:00,
2013-11-20 19:11:00,31.0,19.0,30.57,North,352,0.0,0.0,61,0.00,,,0.00,,2013-11-21 00:11:00,
2013-11-20 19:22:00,30.0,19.0,30.57,North,352,0.0,0.0,62,0.00,,,0.00,,2013-11-21 00:22:00,
2013-11-20 19:42:00,30.0,19.0,30.57,North,352,0.0,0.0,62,0.00,,,0.00,,2013-11-21 00:42:00,
2013-11-20 19:52:00,30.0,19.0,30.57,North,352,0.0,0.0,63,0.00,,,0.00,,2013-11-21 00:52:00,
2013-11-20 20:11:00,29.0,18.0,30.57,North,352,0.0,0.0,63,0.00,,,0.00,,2013-11-21 01:11:00,
2013-11-20 20:22:00,29.0,18.0,30.57,North,352,0.0,0.0,64,0.00,,,0.00,,2013-11-21 01:22:00,
2013-11-20 20:42:00,29.0,19.0,30.58,North,352,0.0,0.0,65,0.00,,,0.00,,2013-11-21 01:42:00,
2013-11-20 20:52:00,29.0,19.0,30.58,North,352,0.0,0.0,65,0.00,,,0.00,,2013-11-21 01:52:00,
2013-11-20 21:22:00,28.0,19.0,30.58,North,352,0.0,0.0,68,0.00,,,0.00,,2013-11-21 02:22:00,
2013-11-20 22:11:00,27.0,19.0,30.58,North,352,0.0,0.0,71,0.00,,,0.00,,2013-11-21 03:11:00,
2013-11-20 22:22:00,27.0,19.0,30.58,North,352,0.0,0.0,71,0.00,,,0.00,,2013-11-21 03:22:00,
2013-11-20 22:43:00,27.0,20.0,30.59,North,352,0.0,0.0,74,0.00,,,0.00,,2013-11-21 03:43:00,
2013-11-20 22:54:00,27.0,19.0,30.59,North,352,0.0,0.0,72,0.00,,,0.00,,2013-11-21 03:54:00,
2013-11-20 23:13:00,27.0,19.0,30.59,North,352,0.0,0.0,71,0.00,,,0.00,,2013-11-21 04:13:00,
2013-11-20 23:24:00,27.0,19.0,30.60,North,352,0.0,0.0,70,0.00,,,0.00,,2013-11-21 04:24:00,
2013-11-20 23:53:00,27.0,19.0,30.60,North,352,0.0,0.0,71,0.00,,,0.00,,2013-11-21 04:53:00,